Details From KMSY - Louis Armstrong New Orleans Intl
To KMOB - Mobile Rgnl
Flight Number -
Tags Generated
Created
Modified
Stats Distance 113 nm / 209 km
Max Altitude 0 ft / 0 m
Waypoints 2
Social Downloads 6
Likes 0
Share VATSIM

Download

Looking for another format? Having issues loading an existing format? Contact us
Advertisement - Login to hide

Notes

Generated

Route

KMSY KMOB

ID Type Via Altitude Latitude Longitude Leg Dist Tot Dist Heading (true) Name
O KMSY APT - 0 ft / 0 m 29.99177˚ -90.25724˚ - 0 nm - Louis Armstrong New Orleans Intl
O KMOB APT - 0 ft / 0 m 30.69456˚ -88.23651˚ 112 nm 112 nm 68° / 69° Mobile Rgnl

Altitude Profile

Advertisement - Login to hide

KMSY

Details ICAO KMSY (MSY)
Name Louis Armstrong New Orleans Intl
Region United States
Timezone America/Chicago (UTC-6.0)
Stats Elevation 3 ft / 1 m (AMSL)
Location 29.993349° -90.257406°
Runways 2
Magnetic Variation 0.732° W

METAR

KMSY 130053Z 32005KT 10SM CLR 11/06 A3016 RMK AO2 SLP216 T01110061 $

Decode

TAF

TAF KMSY 122332Z 1300/1406 34006KT P6SM SKC FM131100 00000KT P6SM SKC FM131800 23008KT P6SM FEW250

Decode

Departure Runways

ID Width Length Bearing (true) Bearing (mag) Surface Threshold Offset Overrun Length
01 150 ft / 46 m 7,021 ft / 2,140 m 15.41° 16.14° Concrete 0 ft / 0 m 600 ft / 183 m
10 150 ft / 46 m 10,090 ft / 3,075 m 105.55° 106.28° Concrete 0 ft / 0 m 400 ft / 122 m
19 150 ft / 46 m 7,021 ft / 2,140 m 195.41° 196.14° Concrete 0 ft / 0 m 600 ft / 183 m
28 150 ft / 46 m 10,090 ft / 3,075 m 285.57° 286.30° Concrete 305 ft / 93 m 249 ft / 76 m

KMOB

Details ICAO KMOB (MOB)
Name Mobile Rgnl
Region United States
Timezone America/Chicago (UTC-6.0)
Stats Elevation 219 ft / 67 m (AMSL)
Location 30.690682° -88.241293°
Runways 2
Magnetic Variation 2.134° W

METAR

KMOB 130056Z 31003KT 10SM CLR 08/02 A3013 RMK AO2 SLP201 T00780017

Decode

TAF

KMOB 122321Z 1300/1324 31006KT P6SM SKC FM130900 33002KT P6SM SKC FM132100 21010KT P6SM SKC

Decode

Destination Runways

ID Width Length Bearing (true) Bearing (mag) Surface Threshold Offset Overrun Length
14 150 ft / 46 m 8,534 ft / 2,601 m 144.33° 146.46° Asphalt 0 ft / 0 m 0 ft / 0 m
18 150 ft / 46 m 4,380 ft / 1,335 m 179.98° 182.11° Asphalt 0 ft / 0 m 0 ft / 0 m
32 150 ft / 46 m 8,534 ft / 2,601 m 324.34° 326.47° Asphalt 0 ft / 0 m 1,007 ft / 307 m
36 150 ft / 46 m 4,380 ft / 1,335 m 359.98° 2.11° Asphalt 0 ft / 0 m 599 ft / 183 m

Approach Navaids

Runway Type Ident Frequency Range Bearing (true) Bearing (mag) Slope Elevation
14 Localiser IMOB 109.90 MHz 18 nm / 33 km 144.34° 146.48° - 209 ft / 64 m (AMSL)
14 Glidescope IMOB 109.90 MHz 10 nm / 19 km 144.34° 146.47° 3.00° 213 ft / 65 m (AMSL)
32 Localiser IATE 111.50 MHz 18 nm / 33 km 324.34° 326.47° - 207 ft / 63 m (AMSL)
32 Glidescope IATE 111.50 MHz 10 nm / 19 km 324.34° 326.47° 3.00° 214 ft / 65 m (AMSL)

Popular Alternatives